createdAt,value
2023-01-24T00:00:47.750Z,14.23
2023-01-24T00:03:14.738Z,15.25
2023-01-24T00:05:42.757Z,18.23
2023-01-24T00:08:11.464Z,16.80
2023-01-24T00:10:38.009Z,16.70
2023-01-24T00:13:04.716Z,14.75
2023-01-24T00:15:31.465Z,16.10
2023-01-24T00:17:58.093Z,16.10
2023-01-24T00:20:24.854Z,14.75
2023-01-24T00:22:51.606Z,16.50
2023-01-24T00:25:18.363Z,17.95
2023-01-24T00:27:44.952Z,17.05
2023-01-24T00:30:12.063Z,16.65
2023-01-24T00:32:39.707Z,16.48
2023-01-24T00:35:06.501Z,16.20
2023-01-24T00:37:33.343Z,18.35
2023-01-24T00:40:00.199Z,18.02
2023-01-24T00:42:27.389Z,16.52
2023-01-24T00:44:53.928Z,17.25
2023-01-24T00:47:20.455Z,16.58
2023-01-24T00:49:47.028Z,16.00
2023-01-24T00:52:13.879Z,15.60
2023-01-24T00:54:40.499Z,16.83
2023-01-24T00:57:07.097Z,17.88
2023-01-24T00:59:39.078Z,15.95
2023-01-24T01:02:05.701Z,16.55
2023-01-24T01:04:32.280Z,17.35
2023-01-24T01:06:58.816Z,17.35
2023-01-24T01:09:25.369Z,16.33
2023-01-24T01:11:52.139Z,15.20
2023-01-24T01:14:18.781Z,18.13
2023-01-24T01:16:45.315Z,15.82
2023-01-24T01:19:12.052Z,14.05
2023-01-24T01:21:38.623Z,17.35
2023-01-24T01:24:05.318Z,15.68
2023-01-24T01:26:32.709Z,15.23
2023-01-24T01:28:59.370Z,18.45
2023-01-24T01:31:26.008Z,16.85
2023-01-24T01:33:52.686Z,16.38
2023-01-24T01:36:20.150Z,16.98
2023-01-24T01:38:46.703Z,17.10
2023-01-24T01:41:14.905Z,15.90
2023-01-24T01:44:01.684Z,19.15
2023-01-24T01:46:35.752Z,15.57
2023-01-24T01:49:05.629Z,16.00
2023-01-24T01:51:39.349Z,14.18
2023-01-24T01:54:11.756Z,14.55
2023-01-24T01:56:49.089Z,14.60
2023-01-24T01:59:19.194Z,15.70
2023-01-24T02:01:48.880Z,14.98
2023-01-24T02:04:28.092Z,15.80
2023-01-24T02:07:02.864Z,16.92
2023-01-24T02:09:33.788Z,15.30
2023-01-24T02:12:04.130Z,14.43
2023-01-24T02:14:51.090Z,15.30
2023-01-24T02:17:22.356Z,16.58
2023-01-24T02:20:01.013Z,14.27
2023-01-24T02:22:39.374Z,16.63
2023-01-24T02:25:36.826Z,14.55
2023-01-24T02:28:04.943Z,12.75
2023-01-24T02:30:31.881Z,14.73
2023-01-24T02:32:59.451Z,15.85
2023-01-24T02:35:29.033Z,14.32
2023-01-24T02:37:58.811Z,13.57
2023-01-24T02:40:29.713Z,13.18
2023-01-24T02:43:00.914Z,12.77
2023-01-24T02:45:29.617Z,14.73
2023-01-24T02:47:57.483Z,13.23
2023-01-24T02:50:27.872Z,13.75
2023-01-24T02:53:13.488Z,12.63
2023-01-24T02:56:00.608Z,12.82
2023-01-24T02:58:29.552Z,14.23
2023-01-24T03:00:56.455Z,12.57
2023-01-24T03:03:24.092Z,12.30
2023-01-24T03:05:59.664Z,14.38
2023-01-24T03:08:34.432Z,11.88
2023-01-24T03:11:03.428Z,11.98
2023-01-24T03:13:50.154Z,12.15
2023-01-24T03:16:36.199Z,12.45
2023-01-24T03:19:22.486Z,12.55
2023-01-24T03:22:07.648Z,12.50
2023-01-24T03:24:52.904Z,12.25
2023-01-24T03:27:38.018Z,12.18
2023-01-24T03:30:24.892Z,12.23
2023-01-24T03:33:10.560Z,12.98
2023-01-24T03:35:38.356Z,13.30
2023-01-24T03:38:23.597Z,11.63
2023-01-24T03:40:53.339Z,11.98
2023-01-24T03:43:20.366Z,11.52
2023-01-24T03:45:47.105Z,11.73
2023-01-24T03:48:35.353Z,11.00
2023-01-24T03:51:22.632Z,10.77
2023-01-24T03:53:49.272Z,13.43
2023-01-24T03:56:17.285Z,13.65
2023-01-24T03:58:54.513Z,12.35
2023-01-24T04:01:22.617Z,13.63
2023-01-24T04:03:57.677Z,13.65
2023-01-24T04:06:24.316Z,14.40
2023-01-24T04:08:52.356Z,12.10
2023-01-24T04:11:20.149Z,14.20
2023-01-24T04:13:51.306Z,12.95
2023-01-24T04:16:17.979Z,11.07
2023-01-24T04:19:07.810Z,10.57
2023-01-24T04:21:35.106Z,11.80
2023-01-24T04:24:01.819Z,10.18
2023-01-24T04:26:29.724Z,11.23
2023-01-24T04:28:56.356Z,11.38
2023-01-24T04:31:23.320Z,12.57
2023-01-24T04:34:12.853Z,9.95
2023-01-24T04:36:41.027Z,13.07
2023-01-24T04:39:07.644Z,12.50
2023-01-24T04:41:48.012Z,10.95
2023-01-24T04:44:15.420Z,12.40
2023-01-24T04:46:42.023Z,11.20
2023-01-24T04:49:08.683Z,10.38
2023-01-24T04:51:43.682Z,10.35
2023-01-24T04:54:14.955Z,12.55
2023-01-24T04:56:41.928Z,12.20
2023-01-24T04:59:09.270Z,11.02
2023-01-24T05:01:37.038Z,11.27
2023-01-24T05:04:10.923Z,10.55
2023-01-24T05:06:37.654Z,11.63
2023-01-24T05:09:04.665Z,12.75
2023-01-24T05:11:49.264Z,11.50
2023-01-24T05:14:15.895Z,10.98
2023-01-24T05:16:42.483Z,11.18
2023-01-24T05:19:11.446Z,11.43
2023-01-24T05:21:38.088Z,11.30
2023-01-24T05:24:05.452Z,12.80
2023-01-24T05:26:32.050Z,11.05
2023-01-24T05:28:59.614Z,11.27
2023-01-24T05:31:26.207Z,12.70
2023-01-24T05:33:53.102Z,12.13
2023-01-24T05:36:24.274Z,11.25
2023-01-24T05:38:51.339Z,12.30
2023-01-24T05:41:20.285Z,12.65
2023-01-24T05:43:50.431Z,12.23
2023-01-24T05:46:22.201Z,12.40
2023-01-24T05:49:21.442Z,10.70
2023-01-24T05:51:49.525Z,11.35
2023-01-24T05:54:28.341Z,12.55
2023-01-24T05:57:04.282Z,11.50
2023-01-24T05:59:47.564Z,11.57
2023-01-24T06:02:14.331Z,12.30
2023-01-24T06:04:41.301Z,13.23
2023-01-24T06:07:08.009Z,12.00
2023-01-24T06:09:34.623Z,13.38
2023-01-24T06:12:01.935Z,10.60
2023-01-24T06:14:29.730Z,13.52
2023-01-24T06:16:56.438Z,10.98
2023-01-24T06:19:23.880Z,11.82
2023-01-24T06:22:09.503Z,11.45
2023-01-24T06:24:36.472Z,12.80
2023-01-24T06:27:16.069Z,12.13
2023-01-24T06:29:43.041Z,13.25
2023-01-24T06:32:27.492Z,12.77
2023-01-24T06:34:53.948Z,12.40
2023-01-24T06:37:47.201Z,13.10
2023-01-24T06:40:16.051Z,12.60
2023-01-24T06:42:42.974Z,11.65
2023-01-24T06:45:10.285Z,12.93
2023-01-24T06:47:37.011Z,11.02
2023-01-24T06:50:05.888Z,12.63
2023-01-24T06:52:32.458Z,11.52
2023-01-24T06:54:59.507Z,11.10
2023-01-24T06:57:26.167Z,13.15
2023-01-24T06:59:52.756Z,13.95
2023-01-24T07:02:19.276Z,11.70
2023-01-24T07:04:45.942Z,11.57
2023-01-24T07:07:12.484Z,12.88
2023-01-24T07:09:39.149Z,10.65
2023-01-24T07:12:05.776Z,11.85
2023-01-24T07:14:32.328Z,11.90
2023-01-24T07:16:59.173Z,13.32
2023-01-24T07:19:26.596Z,12.35
2023-01-24T07:21:55.228Z,12.23
2023-01-24T07:24:28.450Z,12.55
2023-01-24T07:26:55.523Z,13.20
2023-01-24T07:29:22.588Z,10.68
2023-01-24T07:31:49.752Z,12.82
2023-01-24T07:34:18.391Z,16.38
2023-01-24T07:36:48.555Z,13.30
2023-01-24T07:39:16.129Z,12.27
2023-01-24T07:41:46.572Z,13.38
2023-01-24T07:44:14.218Z,13.05
2023-01-24T07:46:40.854Z,13.18
2023-01-24T07:49:07.596Z,12.65
2023-01-24T07:51:34.193Z,13.15
2023-01-24T07:54:00.845Z,13.63
2023-01-24T07:56:27.382Z,13.23
2023-01-24T07:58:54.590Z,12.98
2023-01-24T08:01:22.526Z,12.43
2023-01-24T08:03:50.176Z,14.13
2023-01-24T08:06:18.505Z,15.18
2023-01-24T08:08:45.095Z,14.48
2023-01-24T08:11:14.567Z,14.77
2023-01-24T08:13:41.106Z,13.98
2023-01-24T08:16:08.026Z,13.93
2023-01-24T08:18:34.694Z,12.35
2023-01-24T08:21:01.243Z,12.32
2023-01-24T08:23:27.797Z,13.60
2023-01-24T08:25:54.420Z,14.63
2023-01-24T08:28:21.016Z,14.50
2023-01-24T08:30:47.561Z,14.77
2023-01-24T08:33:18.825Z,12.20
2023-01-24T08:35:46.537Z,12.90
2023-01-24T08:38:14.359Z,13.50
2023-01-24T08:40:49.380Z,14.77
2023-01-24T08:43:16.305Z,12.13
2023-01-24T08:45:42.906Z,13.88
2023-01-24T08:48:09.421Z,15.48
2023-01-24T08:50:35.960Z,13.20
2023-01-24T08:53:02.568Z,12.27
2023-01-24T08:55:29.198Z,13.48
2023-01-24T08:58:04.349Z,15.90
2023-01-24T09:00:31.871Z,12.80
2023-01-24T09:03:02.240Z,14.55
2023-01-24T09:05:30.668Z,13.93
2023-01-24T09:07:58.093Z,14.90
2023-01-24T09:10:24.731Z,16.00
2023-01-24T09:12:51.645Z,14.15
2023-01-24T09:15:18.223Z,14.35
2023-01-24T09:17:45.444Z,15.15
2023-01-24T09:20:12.642Z,15.18
2023-01-24T09:22:39.288Z,14.57
2023-01-24T09:25:08.735Z,16.23
2023-01-24T09:27:36.305Z,16.00
2023-01-24T09:30:03.038Z,15.60
2023-01-24T09:32:30.223Z,15.02
2023-01-24T09:34:56.798Z,14.88
2023-01-24T09:37:23.353Z,15.93
2023-01-24T09:39:49.999Z,16.30
2023-01-24T09:42:35.136Z,16.45
2023-01-24T09:45:24.102Z,14.40
2023-01-24T09:47:54.769Z,16.10
2023-01-24T09:50:47.719Z,15.38
2023-01-24T09:53:22.253Z,14.02
2023-01-24T09:55:48.927Z,14.82
2023-01-24T09:58:35.117Z,14.63
2023-01-24T10:01:05.915Z,16.15
2023-01-24T10:03:33.707Z,16.52
2023-01-24T10:06:22.293Z,14.18
2023-01-24T10:09:15.189Z,15.02
2023-01-24T10:12:00.437Z,13.50
2023-01-24T10:14:59.322Z,13.23
2023-01-24T10:17:40.959Z,14.50
2023-01-24T10:20:32.331Z,13.95
2023-01-24T10:23:16.416Z,15.45
2023-01-24T10:25:57.073Z,12.75
2023-01-24T10:28:33.515Z,14.05
2023-01-24T10:31:06.440Z,14.13
2023-01-24T10:33:38.428Z,14.68
2023-01-24T10:36:14.805Z,14.95
2023-01-24T10:38:43.255Z,14.60
2023-01-24T10:41:21.424Z,16.15
2023-01-24T10:44:02.520Z,14.82
2023-01-24T10:46:54.131Z,14.82
2023-01-24T10:49:26.614Z,14.43
2023-01-24T10:52:25.744Z,15.40
2023-01-24T10:54:56.130Z,15.73
2023-01-24T10:57:52.120Z,14.63
2023-01-24T11:00:28.819Z,16.63
2023-01-24T11:03:00.337Z,16.73
2023-01-24T11:05:45.399Z,15.30
2023-01-24T11:08:24.782Z,16.67
2023-01-24T11:10:59.722Z,14.45
2023-01-24T11:13:39.785Z,15.05
2023-01-24T11:16:20.248Z,14.82
2023-01-24T11:18:56.133Z,14.82
2023-01-24T11:21:22.656Z,16.33
2023-01-24T11:24:07.509Z,13.02
2023-01-24T11:26:38.446Z,15.63
2023-01-24T11:29:17.064Z,12.23
2023-01-24T11:31:48.792Z,14.85
2023-01-24T11:37:00.567Z,13.55
2023-01-24T11:40:00.246Z,14.23
2023-01-24T11:42:42.819Z,12.48
2023-01-24T11:45:30.659Z,14.63
2023-01-24T11:48:28.191Z,13.80
2023-01-24T11:51:19.702Z,14.65
2023-01-24T11:53:56.418Z,14.68
2023-01-24T11:56:54.312Z,13.32
2023-01-24T11:59:55.568Z,13.73
2023-01-24T12:02:53.183Z,14.57
2023-01-24T12:05:44.943Z,14.15
2023-01-24T12:08:39.320Z,15.00
2023-01-24T12:11:34.800Z,15.60
2023-01-24T12:14:10.536Z,14.50
2023-01-24T12:17:04.704Z,17.02
2023-01-24T12:19:45.034Z,14.23
2023-01-24T12:22:19.634Z,14.30
2023-01-24T12:24:54.916Z,13.93
2023-01-24T12:27:26.561Z,11.80
2023-01-24T12:30:19.559Z,14.82
2023-01-24T12:32:53.302Z,15.60
2023-01-24T12:35:29.801Z,13.20
2023-01-24T12:38:21.784Z,13.95
2023-01-24T12:43:34.774Z,15.75
2023-01-24T12:46:26.172Z,15.48
2023-01-24T12:49:44.441Z,14.70
2023-01-24T12:52:32.883Z,14.77
2023-01-24T12:55:15.232Z,13.70
2023-01-24T12:57:59.132Z,15.40
2023-01-24T13:00:39.710Z,15.07
2023-01-24T13:03:35.135Z,13.88
2023-01-24T13:06:27.478Z,14.88
2023-01-24T13:09:22.751Z,11.52
2023-01-24T13:11:53.325Z,14.20
2023-01-24T13:14:38.015Z,14.98
2023-01-24T13:17:48.477Z,13.77
2023-01-24T13:20:44.432Z,14.75
2023-01-24T13:23:28.031Z,14.00
2023-01-24T13:26:08.550Z,15.20
2023-01-24T13:28:45.161Z,15.00
2023-01-24T13:31:14.802Z,13.13
2023-01-24T13:33:50.512Z,12.82
2023-01-24T13:36:20.639Z,14.95
2023-01-24T13:38:48.125Z,14.50
2023-01-24T13:41:17.347Z,17.42
2023-01-24T13:43:57.204Z,15.25
2023-01-24T13:46:59.403Z,16.60
2023-01-24T13:51:59.618Z,14.20
2023-01-24T13:54:42.915Z,15.98
2023-01-24T13:57:24.864Z,14.02
2023-01-24T14:02:48.575Z,13.98
2023-01-24T14:05:30.470Z,18.20
2023-01-24T14:10:40.129Z,14.90
2023-01-24T14:13:41.774Z,14.98
2023-01-24T14:16:40.275Z,14.18
2023-01-24T14:19:16.245Z,13.35
2023-01-24T14:21:52.577Z,15.20
2023-01-24T14:24:57.679Z,15.52
2023-01-24T14:27:33.278Z,15.35
2023-01-24T14:30:14.971Z,14.80
2023-01-24T14:32:48.571Z,15.50
2023-01-24T14:35:20.755Z,15.30
2023-01-24T14:37:49.019Z,15.45
2023-01-24T14:40:24.409Z,15.38
2023-01-24T14:42:59.154Z,15.13
2023-01-24T14:45:29.650Z,13.77
2023-01-24T14:47:58.206Z,15.63
2023-01-24T14:50:32.589Z,15.13
2023-01-24T14:52:59.372Z,14.45
2023-01-24T14:55:34.270Z,14.43
2023-01-24T14:58:17.067Z,12.88
2023-01-24T15:00:43.911Z,15.93
2023-01-24T15:03:17.477Z,14.52
2023-01-24T15:05:51.250Z,13.60
2023-01-24T15:08:19.003Z,13.65
2023-01-24T15:10:52.503Z,14.80
2023-01-24T15:13:26.200Z,14.05
2023-01-24T15:15:54.547Z,13.18
2023-01-24T15:18:49.469Z,15.30
2023-01-24T15:21:24.470Z,14.10
2023-01-24T15:23:53.738Z,14.65
2023-01-24T15:26:29.456Z,15.13
2023-01-24T15:28:55.987Z,15.30
2023-01-24T15:31:32.970Z,14.55
2023-01-24T15:34:01.573Z,17.38
2023-01-24T15:36:32.146Z,15.02
2023-01-24T15:39:01.642Z,14.10
2023-01-24T15:41:50.300Z,15.95
2023-01-24T15:44:18.160Z,16.00
2023-01-24T15:47:05.804Z,15.13
2023-01-24T15:49:37.928Z,16.65
2023-01-24T15:52:17.103Z,15.43
2023-01-24T15:54:46.483Z,15.02
2023-01-24T15:57:34.326Z,15.50
2023-01-24T16:00:22.967Z,16.17
2023-01-24T16:02:49.590Z,16.20
2023-01-24T16:05:19.752Z,18.02
2023-01-24T16:07:46.868Z,18.65
2023-01-24T16:10:14.672Z,16.70
2023-01-24T16:12:42.306Z,16.25
2023-01-24T16:15:20.928Z,17.02
2023-01-24T16:17:47.690Z,17.25
2023-01-24T16:20:22.991Z,13.52
2023-01-24T16:22:49.911Z,16.85
2023-01-24T16:25:17.853Z,17.08
2023-01-24T16:27:44.674Z,15.57
2023-01-24T16:30:20.741Z,13.75
2023-01-24T16:32:47.271Z,14.95
2023-01-24T16:35:14.065Z,14.93
2023-01-24T16:37:40.698Z,17.58
2023-01-24T16:40:11.054Z,15.95
2023-01-24T16:42:43.282Z,17.17
2023-01-24T16:45:15.664Z,19.77
2023-01-24T16:47:42.307Z,15.73
2023-01-24T16:50:11.267Z,17.35
2023-01-24T16:52:39.588Z,19.08
2023-01-24T16:55:08.163Z,17.70
2023-01-24T16:57:34.805Z,16.23
2023-01-24T17:00:01.965Z,16.05
2023-01-24T17:02:28.909Z,15.10
2023-01-24T17:04:55.528Z,18.50
2023-01-24T17:07:22.086Z,17.20
2023-01-24T17:09:48.725Z,17.65
2023-01-24T17:12:15.424Z,15.75
2023-01-24T17:14:43.736Z,22.92
2023-01-24T17:17:10.837Z,18.88
2023-01-24T17:19:38.205Z,15.63
2023-01-24T17:22:06.376Z,15.60
2023-01-24T17:24:33.716Z,18.90
2023-01-24T17:27:00.588Z,19.25
2023-01-24T17:29:28.596Z,17.30
2023-01-24T17:31:56.993Z,15.05
2023-01-24T17:34:29.871Z,16.25
2023-01-24T17:36:56.599Z,16.70
2023-01-24T17:39:23.352Z,16.85
2023-01-24T17:41:51.331Z,14.10
2023-01-24T17:44:18.041Z,17.13
2023-01-24T17:46:44.953Z,15.48
2023-01-24T17:49:11.787Z,16.67
2023-01-24T17:51:38.581Z,16.23
2023-01-24T17:54:06.257Z,16.77
2023-01-24T17:56:32.894Z,16.13
2023-01-24T17:59:01.653Z,16.98
2023-01-24T18:01:28.456Z,15.95
2023-01-24T18:03:57.367Z,17.48
2023-01-24T18:06:24.549Z,14.88
2023-01-24T18:08:51.130Z,18.95
2023-01-24T18:11:19.810Z,14.65
2023-01-24T18:13:46.583Z,19.15
2023-01-24T18:16:19.270Z,15.35
2023-01-24T18:18:46.722Z,19.42
2023-01-24T18:21:19.716Z,17.98
2023-01-24T18:23:58.181Z,17.48
2023-01-24T18:26:26.554Z,18.48
2023-01-24T18:28:53.212Z,17.30
2023-01-24T18:31:19.994Z,18.70
2023-01-24T18:33:46.790Z,19.42
2023-01-24T18:36:17.062Z,18.00
2023-01-24T18:38:44.702Z,26.25
2023-01-24T18:41:11.807Z,18.42
2023-01-24T18:43:38.528Z,17.15
2023-01-24T18:46:07.571Z,20.15
2023-01-24T18:48:38.140Z,21.25
2023-01-24T18:51:10.702Z,19.75
2023-01-24T18:53:37.261Z,22.92
2023-01-24T18:56:05.692Z,18.90
2023-01-24T18:58:34.987Z,18.10
2023-01-24T19:03:42.206Z,19.40
2023-01-24T19:06:10.512Z,16.95
2023-01-24T19:08:48.759Z,18.30
2023-01-24T19:11:23.636Z,19.52
2023-01-24T19:13:50.209Z,20.98
2023-01-24T19:16:16.796Z,20.90
2023-01-24T19:18:46.531Z,24.05
2023-01-24T19:21:15.724Z,21.58
2023-01-24T19:23:44.457Z,22.15
2023-01-24T19:26:13.396Z,16.65
2023-01-24T19:28:40.118Z,18.48
2023-01-24T19:31:07.057Z,17.15
2023-01-24T19:33:34.039Z,18.27
2023-01-24T19:36:13.527Z,16.15
2023-01-24T19:38:44.543Z,16.58
2023-01-24T19:41:12.713Z,24.77
2023-01-24T19:43:40.916Z,20.63
2023-01-24T19:46:12.016Z,22.88
2023-01-24T19:48:39.490Z,22.42
2023-01-24T19:51:09.057Z,17.55
2023-01-24T19:53:40.495Z,18.77
2023-01-24T19:58:38.854Z,18.00
2023-01-24T20:01:13.636Z,19.70
2023-01-24T20:03:41.158Z,16.55
2023-01-24T20:06:13.808Z,19.73
2023-01-24T20:08:46.120Z,21.60
2023-01-24T20:11:16.316Z,18.98
2023-01-24T20:13:43.561Z,18.20
2023-01-24T20:16:17.642Z,20.02
2023-01-24T20:18:58.892Z,18.25
2023-01-24T20:21:28.571Z,23.13
2023-01-24T20:24:01.217Z,16.98
2023-01-24T20:26:28.953Z,23.30
2023-01-24T20:28:55.732Z,20.33
2023-01-24T20:31:24.149Z,18.70
2023-01-24T20:33:51.909Z,18.30
2023-01-24T20:36:18.517Z,18.73
2023-01-24T20:38:47.047Z,36.55
2023-01-24T20:41:16.134Z,21.40
2023-01-24T20:43:43.924Z,20.05
2023-01-24T20:46:20.381Z,17.27
2023-01-24T20:48:48.202Z,19.88
2023-01-24T20:51:14.870Z,19.17
2023-01-24T20:53:41.926Z,18.63
2023-01-24T20:56:11.629Z,18.42
2023-01-24T20:58:38.435Z,19.52
2023-01-24T21:01:15.683Z,17.88
2023-01-24T21:03:44.129Z,16.60
2023-01-24T21:06:16.909Z,18.45
2023-01-24T21:08:44.640Z,18.83
2023-01-24T21:11:18.174Z,17.52
2023-01-24T21:13:49.704Z,19.75
2023-01-24T21:16:16.251Z,18.48
2023-01-24T21:18:42.793Z,20.70
2023-01-24T21:21:09.695Z,18.13
2023-01-24T21:23:36.281Z,18.55
2023-01-24T21:26:07.072Z,16.00
2023-01-24T21:28:34.824Z,16.60
2023-01-24T21:31:04.836Z,17.65
2023-01-24T21:33:31.489Z,17.70
2023-01-24T21:36:10.004Z,17.02
2023-01-24T21:38:36.605Z,19.35
2023-01-24T21:41:27.751Z,20.27
2023-01-24T21:43:54.265Z,17.43
2023-01-24T21:46:20.950Z,20.90
2023-01-24T21:49:05.516Z,18.38
2023-01-24T21:51:43.091Z,18.23
2023-01-24T21:54:26.417Z,16.75
2023-01-24T21:57:30.257Z,19.10
2023-01-24T22:00:00.208Z,16.88
2023-01-24T22:02:29.385Z,20.17
2023-01-24T22:04:56.091Z,19.02
2023-01-24T22:07:25.072Z,17.95
2023-01-24T22:09:53.128Z,16.55
2023-01-24T22:12:19.890Z,17.23
2023-01-24T22:14:47.014Z,18.38
2023-01-24T22:17:19.548Z,18.30
2023-01-24T22:19:50.559Z,19.23
2023-01-24T22:22:35.789Z,18.35
2023-01-24T22:25:19.944Z,20.00
2023-01-24T22:27:47.170Z,18.25
2023-01-24T22:30:20.204Z,15.93
2023-01-24T22:32:47.965Z,17.27
2023-01-24T22:35:16.470Z,17.10
2023-01-24T22:37:45.737Z,20.27
2023-01-24T22:40:13.608Z,24.20
2023-01-24T22:42:40.170Z,22.02
2023-01-24T22:45:07.401Z,22.15
2023-01-24T22:47:34.690Z,22.00
2023-01-24T22:50:01.253Z,20.20
2023-01-24T22:52:27.846Z,16.55
2023-01-24T22:54:54.408Z,17.35
2023-01-24T22:57:21.419Z,16.23
2023-01-24T22:59:48.010Z,17.25
2023-01-24T23:02:14.587Z,20.55
2023-01-24T23:04:41.145Z,20.02
2023-01-24T23:07:07.766Z,17.67
2023-01-24T23:09:34.392Z,18.05
2023-01-24T23:12:00.944Z,15.45
2023-01-24T23:14:46.201Z,18.90
2023-01-24T23:17:15.229Z,14.80
2023-01-24T23:20:05.510Z,15.55
2023-01-24T23:22:34.491Z,14.85
2023-01-24T23:25:01.950Z,16.55
2023-01-24T23:27:31.435Z,16.98
2023-01-24T23:30:06.923Z,22.75
2023-01-24T23:32:45.539Z,19.92
2023-01-24T23:35:14.375Z,14.82
2023-01-24T23:37:41.742Z,15.07
2023-01-24T23:40:11.937Z,16.02
2023-01-24T23:42:38.712Z,14.73
2023-01-24T23:45:06.085Z,15.50
2023-01-24T23:47:32.852Z,14.07
2023-01-24T23:49:59.456Z,14.77
2023-01-24T23:52:25.995Z,14.88
2023-01-24T23:54:52.540Z,19.58
2023-01-24T23:57:19.210Z,13.85
2023-01-24T23:59:45.757Z,15.20
